createdAt,value
2018-12-05T00:04:23.736Z,92.55
2018-12-05T00:22:25.746Z,94.37
2018-12-05T00:24:59.087Z,94.42
2018-12-05T00:27:34.597Z,94.95
2018-12-05T00:33:22.001Z,95.49
2018-12-05T00:35:57.719Z,96.25
2018-12-05T00:41:36.450Z,96.69
2018-12-05T00:50:06.819Z,96.44
2018-12-05T01:01:53.717Z,97.09
2018-12-05T01:04:33.067Z,97.45
2018-12-05T01:07:09.276Z,97.58
2018-12-05T01:09:40.815Z,98.12
2018-12-05T01:15:20.340Z,98.11
2018-12-05T01:36:15.355Z,99.82
2018-12-05T01:38:47.819Z,99.73
2018-12-05T01:41:22.691Z,99.96
2018-12-05T01:47:05.785Z,100.00
2018-12-05T01:49:45.639Z,100.00
2018-12-05T02:13:49.585Z,100.00
2018-12-05T02:28:39.827Z,100.00
2018-12-05T02:46:28.296Z,100.00
2018-12-05T03:01:39.535Z,100.00
2018-12-05T03:07:19.331Z,100.00
2018-12-05T03:09:50.555Z,100.00
2018-12-05T03:12:26.780Z,100.00
2018-12-05T03:15:15.078Z,100.00
2018-12-05T03:17:57.536Z,100.00
2018-12-05T03:23:41.838Z,100.00
2018-12-05T03:38:27.923Z,100.00
2018-12-05T03:53:13.849Z,100.00
2018-12-05T03:55:56.877Z,100.00
2018-12-05T03:58:28.531Z,100.00
2018-12-05T04:01:02.620Z,100.00
2018-12-05T04:03:38.577Z,100.00
2018-12-05T04:24:32.630Z,100.00
2018-12-05T04:36:19.287Z,100.00
2018-12-05T04:38:50.740Z,100.00
2018-12-05T04:44:30.651Z,100.00
2018-12-05T04:47:03.169Z,100.00
2018-12-05T04:49:45.873Z,100.00
2018-12-05T04:52:22.509Z,100.00
2018-12-05T04:55:07.771Z,100.00
2018-12-05T04:57:46.714Z,100.00
2018-12-05T05:12:33.089Z,100.00
2018-12-05T05:24:31.968Z,100.00
2018-12-05T05:27:02.053Z,100.00
2018-12-05T05:38:57.983Z,100.00
2018-12-05T05:41:28.025Z,100.00
2018-12-05T05:43:58.717Z,100.00
2018-12-05T05:46:47.185Z,100.00
2018-12-05T05:49:17.066Z,100.00
2018-12-05T05:51:46.998Z,100.00
2018-12-05T05:54:17.635Z,100.00
2018-12-05T05:56:56.206Z,100.00
2018-12-05T05:59:25.980Z,100.00
2018-12-05T06:01:55.464Z,100.00
2018-12-05T06:07:15.897Z,100.00
2018-12-05T06:09:45.638Z,100.00
2018-12-05T06:12:27.238Z,100.00
2018-12-05T06:14:56.806Z,100.00
2018-12-05T06:23:32.374Z,100.00
2018-12-05T06:26:02.830Z,100.00
2018-12-05T06:31:32.315Z,100.00
2018-12-05T06:34:07.386Z,100.00
2018-12-05T06:36:48.950Z,100.00
2018-12-05T06:39:19.105Z,100.00
2018-12-05T06:41:54.789Z,100.00
2018-12-05T06:44:24.641Z,100.00
2018-12-05T06:46:54.267Z,100.00
2018-12-05T06:49:24.046Z,100.00
2018-12-05T06:52:18.955Z,100.00
2018-12-05T07:01:00.135Z,100.00
2018-12-05T07:03:36.643Z,100.00
2018-12-05T07:09:10.471Z,100.00
2018-12-05T07:11:40.783Z,100.00
2018-12-05T07:14:14.106Z,100.00
2018-12-05T07:17:00.237Z,100.00
2018-12-05T07:19:42.041Z,100.00
2018-12-05T07:22:29.217Z,100.00
2018-12-05T07:28:07.294Z,100.00
2018-12-05T07:30:41.031Z,100.00
2018-12-05T07:33:12.857Z,100.00
2018-12-05T07:38:50.499Z,100.00
2018-12-05T07:41:27.089Z,100.00
2018-12-05T07:47:08.248Z,100.00
2018-12-05T07:52:58.601Z,100.00
2018-12-05T07:55:42.336Z,100.00
2018-12-05T08:01:10.965Z,100.00
2018-12-05T08:03:40.375Z,100.00
2018-12-05T08:06:21.989Z,100.00
2018-12-05T08:09:01.353Z,100.00
2018-12-05T08:11:30.824Z,100.00
2018-12-05T08:14:22.693Z,100.00
2018-12-05T08:16:59.772Z,100.00
2018-12-05T08:19:46.428Z,100.00
2018-12-05T08:22:27.715Z,100.00
2018-12-05T08:24:58.237Z,100.00
2018-12-05T08:30:37.100Z,100.00
2018-12-05T08:33:11.309Z,100.00
2018-12-05T08:35:45.009Z,100.00
2018-12-05T08:38:16.101Z,100.00
2018-12-05T08:43:56.119Z,100.00
2018-12-05T08:55:31.423Z,100.00
2018-12-05T08:58:01.015Z,100.00
2018-12-05T09:00:36.259Z,100.00
2018-12-05T09:06:16.903Z,100.00
2018-12-05T09:08:52.335Z,100.00
2018-12-05T09:11:25.487Z,100.00
2018-12-05T09:14:05.963Z,100.00
2018-12-05T09:16:38.685Z,99.16
2018-12-05T09:19:35.431Z,99.19
2018-12-05T09:22:27.575Z,97.37
2018-12-05T09:25:00.483Z,96.30
2018-12-05T09:27:46.584Z,96.25
2018-12-05T09:30:28.533Z,96.05
2018-12-05T09:33:17.711Z,96.46
2018-12-05T09:35:54.599Z,95.45
2018-12-05T09:47:47.852Z,97.17
2018-12-05T09:53:29.482Z,93.12
2018-12-05T09:56:05.082Z,92.28
2018-12-05T09:58:34.959Z,91.48
2018-12-05T10:01:08.166Z,91.00
2018-12-05T10:03:39.151Z,91.01
2018-12-05T10:09:28.507Z,90.97
2018-12-05T10:14:50.924Z,90.37
2018-12-05T10:17:51.543Z,89.73
2018-12-05T10:26:31.202Z,88.25
2018-12-05T10:32:08.708Z,88.02
2018-12-05T10:34:56.368Z,88.34
2018-12-05T10:37:41.756Z,87.89
2018-12-05T10:40:23.249Z,87.66
2018-12-05T10:43:09.348Z,87.59
2018-12-05T10:45:53.766Z,87.68
2018-12-05T10:51:41.969Z,87.22
2018-12-05T10:57:34.396Z,86.10
2018-12-05T11:00:22.933Z,86.48
2018-12-05T11:03:09.994Z,85.95
2018-12-05T11:05:57.633Z,85.82
2018-12-05T11:08:47.176Z,86.81
2018-12-05T11:14:33.315Z,86.24
2018-12-05T11:20:20.680Z,85.17
2018-12-05T11:23:16.849Z,85.71
2018-12-05T11:26:01.176Z,85.23
2018-12-05T11:28:42.124Z,85.57
2018-12-05T11:31:16.537Z,85.94
2018-12-05T11:33:51.532Z,85.98
2018-12-05T11:42:39.588Z,84.11
2018-12-05T11:45:32.361Z,83.75
2018-12-05T11:48:18.881Z,83.58
2018-12-05T11:54:00.076Z,85.79
2018-12-05T11:56:35.080Z,85.51
2018-12-05T11:59:04.744Z,84.74
2018-12-05T12:01:34.514Z,84.42
2018-12-05T12:04:04.334Z,85.94
2018-12-05T12:06:34.097Z,84.80
2018-12-05T12:09:09.864Z,84.20
2018-12-05T12:11:45.199Z,83.67
2018-12-05T12:16:55.094Z,82.86
2018-12-05T12:19:42.890Z,84.26
2018-12-05T12:28:15.088Z,83.11
2018-12-05T12:30:50.477Z,81.94
2018-12-05T12:33:23.527Z,82.75
2018-12-05T12:35:58.484Z,81.85
2018-12-05T12:38:42.467Z,81.80
2018-12-05T12:41:15.544Z,82.11
2018-12-05T12:43:46.641Z,82.01
2018-12-05T12:46:27.950Z,81.62
2018-12-05T12:52:19.420Z,82.80
2018-12-05T12:57:49.291Z,81.70
2018-12-05T13:00:26.776Z,81.65
2018-12-05T13:03:16.376Z,81.08
2018-12-05T13:09:08.923Z,81.47
2018-12-05T13:14:42.654Z,81.09
2018-12-05T13:17:32.668Z,81.26
2018-12-05T13:20:05.866Z,81.35
2018-12-05T13:22:39.133Z,81.34
2018-12-05T13:28:21.359Z,82.16
2018-12-05T13:30:57.281Z,82.02
2018-12-05T13:33:51.547Z,82.16
2018-12-05T13:36:39.629Z,82.63
2018-12-05T13:39:10.276Z,82.39
2018-12-05T13:45:06.501Z,82.63
2018-12-05T13:47:43.759Z,83.11
2018-12-05T13:50:20.008Z,83.11
2018-12-05T13:52:53.610Z,83.49
2018-12-05T14:01:39.663Z,84.66
2018-12-05T14:04:24.857Z,85.02
2018-12-05T14:06:57.845Z,84.92
2018-12-05T14:09:41.464Z,85.44
2018-12-05T14:15:11.977Z,85.70
2018-12-05T14:20:54.885Z,85.88
2018-12-05T14:23:24.800Z,86.35
2018-12-05T14:25:54.281Z,86.56
2018-12-05T14:28:23.890Z,87.08
2018-12-05T14:31:01.249Z,87.20
2018-12-05T14:36:33.239Z,87.41
2018-12-05T14:42:02.573Z,88.18
2018-12-05T14:44:34.316Z,88.22
2018-12-05T14:47:20.104Z,88.71
2018-12-05T14:49:57.741Z,89.03
2018-12-05T14:52:38.700Z,89.13
2018-12-05T14:55:26.091Z,89.27
2018-12-05T14:57:59.931Z,89.52
2018-12-05T15:03:33.660Z,89.70
2018-12-05T15:09:15.363Z,90.64
2018-12-05T15:11:51.160Z,90.39
2018-12-05T15:20:35.325Z,91.50
2018-12-05T15:23:21.624Z,91.77
2018-12-05T15:26:03.315Z,91.92
2018-12-05T15:28:36.332Z,92.08
2018-12-05T15:31:09.426Z,92.98
2018-12-05T15:36:46.170Z,93.29
2018-12-05T15:39:22.342Z,93.25
2018-12-05T15:45:21.736Z,93.07
2018-12-05T15:48:01.289Z,93.25
2018-12-05T15:50:51.596Z,92.98
2018-12-05T15:53:29.480Z,93.29
2018-12-05T15:56:09.518Z,93.64
2018-12-05T16:02:07.712Z,94.19
2018-12-05T16:04:53.512Z,94.43
2018-12-05T16:07:34.972Z,94.71
2018-12-05T16:13:09.847Z,95.02
2018-12-05T16:15:42.385Z,95.08
2018-12-05T16:18:29.935Z,95.37
2018-12-05T16:20:59.391Z,95.35
2018-12-05T16:23:28.864Z,95.98
2018-12-05T16:26:17.909Z,96.05
2018-12-05T16:28:47.642Z,96.23
2018-12-05T16:31:17.396Z,96.29
2018-12-05T16:36:54.264Z,96.50
2018-12-05T16:39:24.253Z,96.73
2018-12-05T16:41:54.193Z,97.33
2018-12-05T16:44:23.740Z,97.40
2018-12-05T16:46:53.528Z,97.77
2018-12-05T16:49:23.388Z,97.51
2018-12-05T16:51:58.917Z,97.59
2018-12-05T16:54:32.516Z,97.71
2018-12-05T17:00:07.613Z,98.14
2018-12-05T17:05:57.169Z,98.09
2018-12-05T17:08:39.219Z,98.46
2018-12-05T17:14:19.855Z,98.19
2018-12-05T17:16:55.725Z,98.22
2018-12-05T17:19:25.744Z,98.08
2018-12-05T17:24:29.708Z,98.43
2018-12-05T17:27:03.485Z,98.35
2018-12-05T17:29:34.200Z,98.56
2018-12-05T17:32:07.077Z,98.90
2018-12-05T17:34:54.412Z,98.58
2018-12-05T17:37:29.648Z,98.92
2018-12-05T17:40:01.095Z,99.28
2018-12-05T17:42:37.558Z,98.74
2018-12-05T17:48:17.804Z,99.52
2018-12-05T17:50:50.737Z,99.24
2018-12-05T17:53:25.827Z,99.11
2018-12-05T17:55:56.444Z,99.12
2018-12-05T17:58:33.964Z,99.21
2018-12-05T18:01:05.152Z,99.74
2018-12-05T18:09:55.042Z,100.00
2018-12-05T18:24:38.902Z,100.00
2018-12-05T18:42:33.083Z,100.00
2018-12-05T18:45:07.697Z,100.00
2018-12-05T18:47:47.429Z,100.00
2018-12-05T18:59:08.814Z,100.00
2018-12-05T19:04:54.755Z,100.00
2018-12-05T19:16:49.916Z,100.00
2018-12-05T19:28:33.024Z,100.00
2018-12-05T19:31:10.531Z,100.00
2018-12-05T19:33:47.103Z,100.00
2018-12-05T19:39:26.422Z,100.00
2018-12-05T19:42:06.260Z,100.00
2018-12-05T19:44:41.684Z,100.00
2018-12-05T20:11:42.722Z,100.00
2018-12-05T20:17:23.086Z,100.00
2018-12-05T20:19:57.775Z,100.00
2018-12-05T20:25:31.045Z,100.00
2018-12-05T20:31:12.454Z,100.00
2018-12-05T20:33:43.488Z,100.00
2018-12-05T20:36:13.888Z,100.00
2018-12-05T20:38:45.087Z,100.00
2018-12-05T20:41:32.409Z,100.00
2018-12-05T20:44:13.817Z,100.00
2018-12-05T20:46:46.772Z,100.00
2018-12-05T20:52:44.306Z,100.00
2018-12-05T20:55:22.278Z,100.00
2018-12-05T20:58:13.455Z,100.00
2018-12-05T21:00:46.582Z,99.82
2018-12-05T21:03:23.537Z,99.89
2018-12-05T21:09:14.429Z,99.65
2018-12-05T21:11:51.994Z,99.41
2018-12-05T21:14:28.752Z,99.69
2018-12-05T21:17:05.514Z,99.85
2018-12-05T21:19:35.146Z,99.39
2018-12-05T21:22:05.184Z,99.56
2018-12-05T21:30:41.792Z,98.56
2018-12-05T21:33:11.562Z,98.03
2018-12-05T21:35:47.300Z,97.92
2018-12-05T21:38:37.201Z,97.85
2018-12-05T21:41:16.936Z,97.95
2018-12-05T21:43:51.262Z,97.30
2018-12-05T21:46:27.794Z,97.66
2018-12-05T21:48:57.863Z,96.95
2018-12-05T21:51:35.218Z,96.98
2018-12-05T21:54:10.433Z,97.10
2018-12-05T22:06:10.809Z,96.10
2018-12-05T22:08:47.548Z,95.46
2018-12-05T22:11:25.747Z,94.33
2018-12-05T22:13:59.026Z,94.01
2018-12-05T22:16:35.849Z,94.16
2018-12-05T22:19:25.551Z,93.78
2018-12-05T22:21:58.945Z,94.60
2018-12-05T22:24:44.877Z,92.85
2018-12-05T22:27:14.492Z,91.80
2018-12-05T22:29:44.354Z,91.37
2018-12-05T22:32:13.837Z,91.03
2018-12-05T22:34:43.645Z,90.11
2018-12-05T22:37:13.633Z,89.71
2018-12-05T22:39:52.589Z,88.82
2018-12-05T22:42:28.073Z,89.02
2018-12-05T22:45:00.932Z,88.08
2018-12-05T22:47:35.365Z,87.45
2018-12-05T22:50:08.627Z,87.19
2018-12-05T22:55:44.297Z,86.15
2018-12-05T22:58:17.483Z,85.75
2018-12-05T23:01:14.021Z,85.72
2018-12-05T23:04:01.159Z,84.76
2018-12-05T23:06:34.175Z,84.13
2018-12-05T23:12:22.512Z,82.85
2018-12-05T23:15:02.338Z,82.34
2018-12-05T23:17:37.193Z,82.50
2018-12-05T23:20:09.722Z,82.05
2018-12-05T23:22:49.010Z,82.18
2018-12-05T23:25:32.602Z,81.81
2018-12-05T23:28:14.586Z,81.91
2018-12-05T23:35:12.893Z,81.05
2018-12-05T23:37:54.837Z,80.03
2018-12-05T23:40:44.840Z,80.35
2018-12-05T23:43:32.581Z,80.59
2018-12-05T23:46:12.497Z,80.23
2018-12-05T23:48:42.445Z,80.36
2018-12-05T23:54:30.185Z,80.50
2018-12-05T23:57:05.508Z,80.18
2018-12-05T23:59:46.988Z,80.89
